Pagrindinis puslapis
METAR-TAF:

METAR-TAF

Oro uostai :

Krajova, Rumunija

platuma: 44-14N, ilguma: 023-52E, Aukštis: 192 m

Dabartinis oras

Ataskaita buvo paskelbta 12 minutes, ne 08:30 UTC
Vėjas 5 kt iš Pietryčių, svyruoja nuo Rytų/Pietryčių ir Pietų
Temperatūra 17°C
Drėgmė 72%
Slėgis 1019 hPa
Matomumas 10 km arba daugiau
nėra debesų žemiau 1500 m ir nėra kamuolinių lietaus debesų

METAR: LRCV 180830Z 13005KT 110V170 CAVOK 17/12 Q1019

Laikas: 11:42 (08:42 UTC)

Prognozė

Ataskaita buvo paskelbta 3 valandos ir 42 minutes, ne 05:00 UTC
Prognozė galioja nuo 18 metu 06 UTC su 18 metu 15 UTC
Vėjas 4 kt nuo kintamojo kryptimis
Matomumas: 1500 m
rūkana
Laikinai
nuo 18 metu 06 UTC su 18 metu 07 UTC
Matomumas: 0500 m
rūkas
Tapsmas
nuo 18 metu 07 UTC su 18 metu 09 UTC
Matomumas 10 km arba daugiau

TAF: LRCV 180500Z 1806/1815 VRB04KT 1500 BR NSC TEMPO 1806/1807 0500 FG BECMG 1807/1809 9999 NSW

Orai ataskaitas ir orų prognozės (METAR, TAF).

turimą stotys yra geltonos ir raudonos taškus žemėlapyje.

Perkelti pele per norėdami pamatyti stoties vardą.

Tada spustelėkite, norėdami matyti oro stebėjimo ir prognozės.

Norėdami pakeisti žemėlapį: spustelėkite ant žalios mygtukų su juodo kryžiaus žemyn,; žalią mygtuką su brūkšneliu, jei norite nutolinti; arba žalių rodyklių gretimoms žemėlapius.


METAR-TAF: